sensor_id;sensor_type;location;lat;lon;timestamp;pressure;altitude;pressure_sealevel;temperature;humidity
16806;BME280;8520;50.102;20.010;2022-12-07T00:01:20;97766.50;;;3.64;92.87
16806;BME280;8520;50.102;20.010;2022-12-07T00:03:51;97771.63;;;3.75;93.02
16806;BME280;8520;50.102;20.010;2022-12-07T00:06:21;97761.94;;;3.96;91.89
16806;BME280;8520;50.102;20.010;2022-12-07T00:08:49;97766.56;;;3.86;92.06
16806;BME280;8520;50.102;20.010;2022-12-07T00:11:19;97773.31;;;3.82;93.23
16806;BME280;8520;50.102;20.010;2022-12-07T00:13:51;97768.53;;;3.73;92.25
16806;BME280;8520;50.102;20.010;2022-12-07T00:16:21;97762.78;;;3.71;93.08
16806;BME280;8520;50.102;20.010;2022-12-07T00:18:49;97772.88;;;3.83;93.00
16806;BME280;8520;50.102;20.010;2022-12-07T00:21:19;97763.06;;;3.86;92.89
16806;BME280;8520;50.102;20.010;2022-12-07T00:23:50;97766.69;;;3.70;93.28
16806;BME280;8520;50.102;20.010;2022-12-07T00:26:19;97760.84;;;3.46;94.06
16806;BME280;8520;50.102;20.010;2022-12-07T00:28:48;97763.66;;;3.68;94.46
16806;BME280;8520;50.102;20.010;2022-12-07T00:31:18;97761.69;;;3.68;94.48
16806;BME280;8520;50.102;20.010;2022-12-07T00:33:47;97760.00;;;3.49;94.50
16806;BME280;8520;50.102;20.010;2022-12-07T00:36:16;97767.06;;;3.34;95.38
16806;BME280;8520;50.102;20.010;2022-12-07T00:38:54;97767.59;;;3.67;95.50
16806;BME280;8520;50.102;20.010;2022-12-07T00:41:23;97753.28;;;3.76;94.24
16806;BME280;8520;50.102;20.010;2022-12-07T00:43:52;97753.53;;;4.03;92.63
16806;BME280;8520;50.102;20.010;2022-12-07T00:46:21;97750.09;;;3.30;93.55
16806;BME280;8520;50.102;20.010;2022-12-07T00:48:50;97749.34;;;3.17;94.96
16806;BME280;8520;50.102;20.010;2022-12-07T00:51:20;97744.97;;;3.32;94.37
16806;BME280;8520;50.102;20.010;2022-12-07T00:53:49;97746.47;;;3.58;93.85
16806;BME280;8520;50.102;20.010;2022-12-07T00:56:22;97750.88;;;3.78;93.17
16806;BME280;8520;50.102;20.010;2022-12-07T00:58:52;97753.63;;;3.78;94.10
16806;BME280;8520;50.102;20.010;2022-12-07T01:01:20;97754.72;;;3.67;94.38
16806;BME280;8520;50.102;20.010;2022-12-07T01:03:48;97754.59;;;3.71;93.89
16806;BME280;8520;50.102;20.010;2022-12-07T01:06:18;97749.81;;;3.62;94.10
16806;BME280;8520;50.102;20.010;2022-12-07T01:08:46;97750.09;;;3.42;94.18
16806;BME280;8520;50.102;20.010;2022-12-07T01:11:19;97744.50;;;3.59;94.44
16806;BME280;8520;50.102;20.010;2022-12-07T01:13:49;97752.09;;;3.77;93.45
16806;BME280;8520;50.102;20.010;2022-12-07T01:16:19;97744.78;;;3.74;92.63
16806;BME280;8520;50.102;20.010;2022-12-07T01:18:48;97744.22;;;4.35;91.65
16806;BME280;8520;50.102;20.010;2022-12-07T01:21:19;97742.06;;;4.08;91.30
16806;BME280;8520;50.102;20.010;2022-12-07T01:23:48;97735.63;;;3.80;93.42
16806;BME280;8520;50.102;20.010;2022-12-07T01:26:19;97739.22;;;4.12;92.38
16806;BME280;8520;50.102;20.010;2022-12-07T01:28:47;97728.88;;;4.81;89.90
16806;BME280;8520;50.102;20.010;2022-12-07T01:31:17;97741.75;;;4.28;90.33
16806;BME280;8520;50.102;20.010;2022-12-07T01:33:48;97735.59;;;4.37;89.54
16806;BME280;8520;50.102;20.010;2022-12-07T01:36:17;97729.91;;;4.22;91.21
16806;BME280;8520;50.102;20.010;2022-12-07T01:38:48;97736.28;;;3.71;92.04
16806;BME280;8520;50.102;20.010;2022-12-07T01:41:20;97731.06;;;3.99;93.12
16806;BME280;8520;50.102;20.010;2022-12-07T01:46:55;97732.94;;;3.67;93.33
16806;BME280;8520;50.102;20.010;2022-12-07T01:49:29;97730.59;;;4.35;91.05
16806;BME280;8520;50.102;20.010;2022-12-07T01:52:12;97727.31;;;4.40;90.95
16806;BME280;8520;50.102;20.010;2022-12-07T01:54:42;97734.88;;;4.02;90.80
16806;BME280;8520;50.102;20.010;2022-12-07T01:57:13;97724.75;;;3.67;92.15
16806;BME280;8520;50.102;20.010;2022-12-07T01:59:45;97733.31;;;4.13;91.18
16806;BME280;8520;50.102;20.010;2022-12-07T02:02:18;97733.88;;;4.08;91.60
16806;BME280;8520;50.102;20.010;2022-12-07T02:04:47;97730.84;;;4.28;89.78
16806;BME280;8520;50.102;20.010;2022-12-07T02:07:15;97730.69;;;4.10;90.56
16806;BME280;8520;50.102;20.010;2022-12-07T02:09:43;97741.53;;;4.00;91.54
16806;BME280;8520;50.102;20.010;2022-12-07T02:12:12;97730.91;;;3.93;91.52
16806;BME280;8520;50.102;20.010;2022-12-07T02:14:41;97723.25;;;3.54;93.18
16806;BME280;8520;50.102;20.010;2022-12-07T02:17:15;97719.03;;;3.87;91.09
16806;BME280;8520;50.102;20.010;2022-12-07T02:20:03;97720.16;;;3.17;94.22
16806;BME280;8520;50.102;20.010;2022-12-07T02:22:51;97724.22;;;3.60;92.50
16806;BME280;8520;50.102;20.010;2022-12-07T02:25:37;97730.34;;;3.51;93.23
16806;BME280;8520;50.102;20.010;2022-12-07T02:28:19;97726.97;;;3.94;92.56
16806;BME280;8520;50.102;20.010;2022-12-07T02:30:52;97722.81;;;3.90;91.19
16806;BME280;8520;50.102;20.010;2022-12-07T02:33:27;97724.41;;;4.00;91.23
16806;BME280;8520;50.102;20.010;2022-12-07T02:36:00;97724.09;;;3.98;90.79
16806;BME280;8520;50.102;20.010;2022-12-07T02:38:35;97726.53;;;4.40;90.34
16806;BME280;8520;50.102;20.010;2022-12-07T02:41:09;97728.56;;;3.70;91.72
16806;BME280;8520;50.102;20.010;2022-12-07T02:43:42;97722.59;;;3.62;92.18
16806;BME280;8520;50.102;20.010;2022-12-07T02:46:17;97724.38;;;3.43;93.12
16806;BME280;8520;50.102;20.010;2022-12-07T02:48:47;97722.56;;;3.75;91.69
16806;BME280;8520;50.102;20.010;2022-12-07T02:51:17;97716.06;;;3.47;92.32
16806;BME280;8520;50.102;20.010;2022-12-07T02:53:45;97720.84;;;3.90;91.45
16806;BME280;8520;50.102;20.010;2022-12-07T02:56:20;97720.59;;;3.76;91.39
16806;BME280;8520;50.102;20.010;2022-12-07T02:59:01;97719.63;;;4.04;91.32
16806;BME280;8520;50.102;20.010;2022-12-07T03:01:37;97706.16;;;3.88;92.17
16806;BME280;8520;50.102;20.010;2022-12-07T03:04:17;97706.63;;;4.92;88.27
16806;BME280;8520;50.102;20.010;2022-12-07T03:06:50;97701.19;;;4.92;86.73
16806;BME280;8520;50.102;20.010;2022-12-07T03:09:22;97700.38;;;4.51;88.18
16806;BME280;8520;50.102;20.010;2022-12-07T03:12:01;97696.75;;;4.54;88.00
16806;BME280;8520;50.102;20.010;2022-12-07T03:14:38;97700.66;;;4.22;89.10
16806;BME280;8520;50.102;20.010;2022-12-07T03:17:13;97701.59;;;4.50;88.29
16806;BME280;8520;50.102;20.010;2022-12-07T03:19:44;97699.03;;;4.56;87.51
16806;BME280;8520;50.102;20.010;2022-12-07T03:22:13;97702.19;;;4.76;86.36
16806;BME280;8520;50.102;20.010;2022-12-07T03:24:45;97701.34;;;4.57;87.00
16806;BME280;8520;50.102;20.010;2022-12-07T03:27:17;97698.50;;;4.70;86.86
16806;BME280;8520;50.102;20.010;2022-12-07T03:29:50;97696.00;;;4.54;87.07
16806;BME280;8520;50.102;20.010;2022-12-07T03:32:24;97692.44;;;4.75;86.69
16806;BME280;8520;50.102;20.010;2022-12-07T03:34:57;97683.50;;;5.06;85.48
16806;BME280;8520;50.102;20.010;2022-12-07T03:37:31;97679.44;;;4.79;85.93
16806;BME280;8520;50.102;20.010;2022-12-07T03:40:05;97688.91;;;4.66;86.21
16806;BME280;8520;50.102;20.010;2022-12-07T03:42:35;97686.09;;;3.94;88.25
16806;BME280;8520;50.102;20.010;2022-12-07T03:45:05;97687.56;;;4.61;87.37
16806;BME280;8520;50.102;20.010;2022-12-07T03:47:42;97680.47;;;4.20;88.11
16806;BME280;8520;50.102;20.010;2022-12-07T03:50:15;97680.03;;;4.74;87.61
16806;BME280;8520;50.102;20.010;2022-12-07T03:52:53;97678.97;;;4.19;87.69
16806;BME280;8520;50.102;20.010;2022-12-07T03:55:25;97675.81;;;4.82;86.66
16806;BME280;8520;50.102;20.010;2022-12-07T03:57:56;97669.88;;;4.75;86.51
16806;BME280;8520;50.102;20.010;2022-12-07T04:00:26;97676.25;;;4.81;85.64
16806;BME280;8520;50.102;20.010;2022-12-07T04:02:56;97668.00;;;4.63;86.65
16806;BME280;8520;50.102;20.010;2022-12-07T04:05:25;97669.63;;;4.91;85.98
16806;BME280;8520;50.102;20.010;2022-12-07T04:07:53;97674.00;;;4.79;85.92
16806;BME280;8520;50.102;20.010;2022-12-07T04:10:21;97666.78;;;4.95;86.43
16806;BME280;8520;50.102;20.010;2022-12-07T04:12:49;97666.72;;;4.76;86.83
16806;BME280;8520;50.102;20.010;2022-12-07T04:15:18;97671.09;;;4.83;86.62
16806;BME280;8520;50.102;20.010;2022-12-07T04:17:46;97670.38;;;4.92;86.69
16806;BME280;8520;50.102;20.010;2022-12-07T04:20:15;97666.28;;;4.87;86.90
16806;BME280;8520;50.102;20.010;2022-12-07T04:22:43;97669.06;;;5.05;86.76
16806;BME280;8520;50.102;20.010;2022-12-07T04:25:11;97672.09;;;4.58;87.99
16806;BME280;8520;50.102;20.010;2022-12-07T04:27:39;97672.41;;;4.60;88.70
16806;BME280;8520;50.102;20.010;2022-12-07T04:30:08;97664.03;;;4.95;87.68
16806;BME280;8520;50.102;20.010;2022-12-07T04:32:36;97667.00;;;4.47;88.36
16806;BME280;8520;50.102;20.010;2022-12-07T04:35:05;97666.03;;;5.03;87.56
16806;BME280;8520;50.102;20.010;2022-12-07T04:37:34;97656.38;;;5.39;86.16
16806;BME280;8520;50.102;20.010;2022-12-07T04:40:03;97660.69;;;4.91;86.89
16806;BME280;8520;50.102;20.010;2022-12-07T04:42:32;97656.84;;;4.79;87.32
16806;BME280;8520;50.102;20.010;2022-12-07T04:45:00;97664.31;;;4.88;87.71
16806;BME280;8520;50.102;20.010;2022-12-07T04:47:28;97662.88;;;5.05;86.79
16806;BME280;8520;50.102;20.010;2022-12-07T04:49:56;97666.72;;;4.76;87.74
16806;BME280;8520;50.102;20.010;2022-12-07T04:52:24;97655.38;;;4.87;88.39
16806;BME280;8520;50.102;20.010;2022-12-07T04:54:53;97665.50;;;3.59;91.46
16806;BME280;8520;50.102;20.010;2022-12-07T04:57:21;97666.16;;;4.28;92.44
16806;BME280;8520;50.102;20.010;2022-12-07T04:59:49;97659.00;;;3.78;93.39
16806;BME280;8520;50.102;20.010;2022-12-07T05:02:17;97667.00;;;4.16;91.95
16806;BME280;8520;50.102;20.010;2022-12-07T05:04:45;97665.97;;;3.45;93.63
16806;BME280;8520;50.102;20.010;2022-12-07T05:07:13;97664.63;;;3.84;93.49
16806;BME280;8520;50.102;20.010;2022-12-07T05:09:41;97659.63;;;3.60;93.50
16806;BME280;8520;50.102;20.010;2022-12-07T05:12:11;97655.31;;;3.37;93.27
16806;BME280;8520;50.102;20.010;2022-12-07T05:14:41;97659.25;;;3.71;94.14
16806;BME280;8520;50.102;20.010;2022-12-07T05:17:11;97661.91;;;4.27;92.02
16806;BME280;8520;50.102;20.010;2022-12-07T05:19:39;97668.53;;;3.95;90.21
16806;BME280;8520;50.102;20.010;2022-12-07T05:22:07;97669.38;;;3.70;92.09
16806;BME280;8520;50.102;20.010;2022-12-07T05:24:36;97668.25;;;2.86;94.21
16806;BME280;8520;50.102;20.010;2022-12-07T05:27:04;97663.22;;;2.97;93.73
16806;BME280;8520;50.102;20.010;2022-12-07T05:29:33;97669.31;;;2.63;96.34
16806;BME280;8520;50.102;20.010;2022-12-07T05:32:01;97669.78;;;2.87;96.35
16806;BME280;8520;50.102;20.010;2022-12-07T05:34:30;97665.72;;;2.92;95.71
16806;BME280;8520;50.102;20.010;2022-12-07T05:36:58;97669.00;;;2.74;96.90
16806;BME280;8520;50.102;20.010;2022-12-07T05:39:26;97670.63;;;2.71;96.05
16806;BME280;8520;50.102;20.010;2022-12-07T05:41:54;97675.22;;;2.49;98.46
16806;BME280;8520;50.102;20.010;2022-12-07T05:44:43;97675.09;;;3.03;96.40
16806;BME280;8520;50.102;20.010;2022-12-07T05:47:12;97679.13;;;2.86;96.87
16806;BME280;8520;50.102;20.010;2022-12-07T05:49:41;97675.88;;;2.78;97.77
16806;BME280;8520;50.102;20.010;2022-12-07T05:52:09;97676.41;;;3.11;96.34
16806;BME280;8520;50.102;20.010;2022-12-07T05:54:37;97674.22;;;2.43;98.44
16806;BME280;8520;50.102;20.010;2022-12-07T05:57:05;97674.84;;;3.10;96.74
16806;BME280;8520;50.102;20.010;2022-12-07T05:59:33;97675.81;;;3.64;94.22
16806;BME280;8520;50.102;20.010;2022-12-07T06:02:03;97674.09;;;3.23;95.22
16806;BME280;8520;50.102;20.010;2022-12-07T06:04:34;97676.88;;;3.45;94.01
16806;BME280;8520;50.102;20.010;2022-12-07T06:07:03;97685.75;;;3.23;94.89
16806;BME280;8520;50.102;20.010;2022-12-07T06:09:31;97676.00;;;3.48;94.46
16806;BME280;8520;50.102;20.010;2022-12-07T06:12:00;97678.00;;;3.69;93.18
16806;BME280;8520;50.102;20.010;2022-12-07T06:14:46;97669.91;;;3.43;93.17
16806;BME280;8520;50.102;20.010;2022-12-07T06:17:16;97677.47;;;3.01;96.23
16806;BME280;8520;50.102;20.010;2022-12-07T06:19:44;97673.69;;;3.46;94.50
16806;BME280;8520;50.102;20.010;2022-12-07T06:22:12;97673.53;;;3.62;92.96
16806;BME280;8520;50.102;20.010;2022-12-07T06:24:40;97674.22;;;3.06;94.71
16806;BME280;8520;50.102;20.010;2022-12-07T06:27:09;97679.97;;;3.08;95.15
16806;BME280;8520;50.102;20.010;2022-12-07T06:29:37;97677.16;;;3.12;96.68
16806;BME280;8520;50.102;20.010;2022-12-07T06:32:05;97677.38;;;2.79;97.21
16806;BME280;8520;50.102;20.010;2022-12-07T06:34:34;97675.28;;;3.09;96.19
16806;BME280;8520;50.102;20.010;2022-12-07T06:37:03;97675.84;;;2.91;96.38
16806;BME280;8520;50.102;20.010;2022-12-07T06:39:31;97680.34;;;2.85;96.32
16806;BME280;8520;50.102;20.010;2022-12-07T06:41:59;97676.63;;;2.66;97.19
16806;BME280;8520;50.102;20.010;2022-12-07T06:44:27;97677.72;;;2.69;97.25
16806;BME280;8520;50.102;20.010;2022-12-07T06:46:55;97694.56;;;2.38;98.40
16806;BME280;8520;50.102;20.010;2022-12-07T06:49:45;97682.56;;;3.25;96.43
16806;BME280;8520;50.102;20.010;2022-12-07T06:52:13;97686.69;;;3.77;93.80
16806;BME280;8520;50.102;20.010;2022-12-07T06:54:41;97691.19;;;3.10;93.55
16806;BME280;8520;50.102;20.010;2022-12-07T06:57:09;97683.38;;;3.47;93.74
16806;BME280;8520;50.102;20.010;2022-12-07T06:59:38;97696.88;;;2.91;95.21
16806;BME280;8520;50.102;20.010;2022-12-07T07:02:08;97691.41;;;2.91;95.99
16806;BME280;8520;50.102;20.010;2022-12-07T07:04:36;97712.09;;;3.01;95.78
16806;BME280;8520;50.102;20.010;2022-12-07T07:07:06;97701.22;;;2.63;95.93
16806;BME280;8520;50.102;20.010;2022-12-07T07:09:34;97706.97;;;2.65;96.21
16806;BME280;8520;50.102;20.010;2022-12-07T07:12:02;97698.94;;;2.87;96.67
16806;BME280;8520;50.102;20.010;2022-12-07T07:14:30;97712.75;;;2.67;96.67
16806;BME280;8520;50.102;20.010;2022-12-07T07:16:59;97698.16;;;2.73;97.04
16806;BME280;8520;50.102;20.010;2022-12-07T07:19:27;97702.75;;;2.89;96.40
16806;BME280;8520;50.102;20.010;2022-12-07T07:21:55;97718.47;;;2.43;97.53
16806;BME280;8520;50.102;20.010;2022-12-07T07:24:25;97701.00;;;2.15;98.84
16806;BME280;8520;50.102;20.010;2022-12-07T07:26:53;97700.56;;;3.22;96.27
16806;BME280;8520;50.102;20.010;2022-12-07T07:29:21;97706.19;;;2.51;96.86
16806;BME280;8520;50.102;20.010;2022-12-07T07:31:49;97699.94;;;2.25;98.42
16806;BME280;8520;50.102;20.010;2022-12-07T07:34:17;97711.13;;;2.69;98.16
16806;BME280;8520;50.102;20.010;2022-12-07T07:36:45;97708.16;;;2.38;98.29
16806;BME280;8520;50.102;20.010;2022-12-07T07:39:13;97706.59;;;2.37;98.18
16806;BME280;8520;50.102;20.010;2022-12-07T07:41:43;97714.00;;;2.37;97.45
16806;BME280;8520;50.102;20.010;2022-12-07T07:44:13;97700.44;;;3.00;96.53
16806;BME280;8520;50.102;20.010;2022-12-07T07:46:42;97696.75;;;3.07;96.20
16806;BME280;8520;50.102;20.010;2022-12-07T07:49:10;97698.59;;;3.10;96.33
16806;BME280;8520;50.102;20.010;2022-12-07T07:51:38;97702.31;;;2.78;95.40
16806;BME280;8520;50.102;20.010;2022-12-07T07:54:06;97701.41;;;3.19;95.07
16806;BME280;8520;50.102;20.010;2022-12-07T07:56:34;97706.56;;;2.79;96.29
16806;BME280;8520;50.102;20.010;2022-12-07T07:59:04;97705.56;;;2.98;96.37
16806;BME280;8520;50.102;20.010;2022-12-07T08:01:32;97705.03;;;3.16;96.33
16806;BME280;8520;50.102;20.010;2022-12-07T08:04:01;97711.25;;;2.66;96.87
16806;BME280;8520;50.102;20.010;2022-12-07T08:06:29;97714.16;;;2.71;97.30
16806;BME280;8520;50.102;20.010;2022-12-07T08:08:58;97713.22;;;3.03;96.59
16806;BME280;8520;50.102;20.010;2022-12-07T08:11:26;97717.88;;;3.03;96.97
16806;BME280;8520;50.102;20.010;2022-12-07T08:13:54;97724.41;;;3.31;96.00
16806;BME280;8520;50.102;20.010;2022-12-07T08:16:23;97730.63;;;2.93;96.52
16806;BME280;8520;50.102;20.010;2022-12-07T08:18:52;97721.59;;;3.69;95.43
16806;BME280;8520;50.102;20.010;2022-12-07T08:21:20;97723.16;;;3.57;95.48
16806;BME280;8520;50.102;20.010;2022-12-07T08:23:48;97727.00;;;3.82;93.11
16806;BME280;8520;50.102;20.010;2022-12-07T08:26:16;97728.75;;;3.16;95.09
16806;BME280;8520;50.102;20.010;2022-12-07T08:28:44;97733.09;;;3.26;95.53
16806;BME280;8520;50.102;20.010;2022-12-07T08:31:15;97732.59;;;2.93;96.52
16806;BME280;8520;50.102;20.010;2022-12-07T08:33:46;97725.88;;;3.57;95.07
16806;BME280;8520;50.102;20.010;2022-12-07T08:36:15;97728.53;;;2.72;96.66
16806;BME280;8520;50.102;20.010;2022-12-07T08:38:43;97730.06;;;2.98;95.92
16806;BME280;8520;50.102;20.010;2022-12-07T08:41:31;97727.25;;;3.14;94.08
16806;BME280;8520;50.102;20.010;2022-12-07T08:43:59;97731.91;;;2.89;96.63
16806;BME280;8520;50.102;20.010;2022-12-07T08:46:31;97719.50;;;3.00;96.53
16806;BME280;8520;50.102;20.010;2022-12-07T08:49:08;97727.13;;;3.31;95.99
16806;BME280;8520;50.102;20.010;2022-12-07T08:51:37;97739.63;;;3.28;95.82
16806;BME280;8520;50.102;20.010;2022-12-07T08:54:09;97732.59;;;3.65;94.28
16806;BME280;8520;50.102;20.010;2022-12-07T08:56:38;97737.88;;;3.82;93.18
16806;BME280;8520;50.102;20.010;2022-12-07T08:59:07;97736.16;;;3.40;94.95
16806;BME280;8520;50.102;20.010;2022-12-07T09:01:35;97747.59;;;2.84;95.83
16806;BME280;8520;50.102;20.010;2022-12-07T09:04:04;97738.97;;;3.50;95.78
16806;BME280;8520;50.102;20.010;2022-12-07T09:06:33;97737.63;;;3.54;95.32
16806;BME280;8520;50.102;20.010;2022-12-07T09:09:02;97741.38;;;3.09;95.12
16806;BME280;8520;50.102;20.010;2022-12-07T09:11:31;97739.72;;;3.50;94.90
16806;BME280;8520;50.102;20.010;2022-12-07T09:13:59;97743.16;;;3.63;93.65
16806;BME280;8520;50.102;20.010;2022-12-07T09:16:27;97737.03;;;3.12;96.47
16806;BME280;8520;50.102;20.010;2022-12-07T09:18:55;97747.16;;;3.24;95.54
16806;BME280;8520;50.102;20.010;2022-12-07T09:21:25;97740.28;;;3.32;95.61
16806;BME280;8520;50.102;20.010;2022-12-07T09:23:53;97741.94;;;3.17;97.00
16806;BME280;8520;50.102;20.010;2022-12-07T09:26:21;97746.66;;;3.64;94.82
16806;BME280;8520;50.102;20.010;2022-12-07T09:28:49;97739.34;;;3.74;93.62
16806;BME280;8520;50.102;20.010;2022-12-07T09:31:17;97750.31;;;3.10;94.26
16806;BME280;8520;50.102;20.010;2022-12-07T09:33:53;97742.56;;;3.94;93.64
16806;BME280;8520;50.102;20.010;2022-12-07T09:36:22;97729.41;;;3.32;94.71
16806;BME280;8520;50.102;20.010;2022-12-07T09:38:52;97738.97;;;3.37;94.31
16806;BME280;8520;50.102;20.010;2022-12-07T09:41:21;97731.38;;;3.32;95.92
16806;BME280;8520;50.102;20.010;2022-12-07T09:43:51;97733.88;;;3.39;96.97
16806;BME280;8520;50.102;20.010;2022-12-07T09:46:20;97724.63;;;3.24;95.92
16806;BME280;8520;50.102;20.010;2022-12-07T09:48:49;97738.13;;;2.89;97.37
16806;BME280;8520;50.102;20.010;2022-12-07T09:51:20;97730.81;;;3.24;96.20
16806;BME280;8520;50.102;20.010;2022-12-07T09:53:53;97727.41;;;3.58;94.15
16806;BME280;8520;50.102;20.010;2022-12-07T09:56:23;97733.00;;;3.29;96.65
16806;BME280;8520;50.102;20.010;2022-12-07T09:58:58;97737.25;;;3.05;96.86
16806;BME280;8520;50.102;20.010;2022-12-07T10:01:28;97738.81;;;3.66;95.75
16806;BME280;8520;50.102;20.010;2022-12-07T10:04:02;97726.22;;;3.81;95.27
16806;BME280;8520;50.102;20.010;2022-12-07T10:06:34;97734.31;;;3.12;95.34
16806;BME280;8520;50.102;20.010;2022-12-07T10:09:09;97732.63;;;3.53;95.05
16806;BME280;8520;50.102;20.010;2022-12-07T10:11:59;97728.41;;;3.86;93.28
16806;BME280;8520;50.102;20.010;2022-12-07T10:14:27;97724.38;;;3.43;94.07
16806;BME280;8520;50.102;20.010;2022-12-07T10:17:31;97723.63;;;3.30;95.20
16806;BME280;8520;50.102;20.010;2022-12-07T10:20:19;97731.06;;;3.04;96.67
16806;BME280;8520;50.102;20.010;2022-12-07T10:22:58;97723.97;;;3.32;97.02
16806;BME280;8520;50.102;20.010;2022-12-07T10:25:30;97723.00;;;3.13;96.27
16806;BME280;8520;50.102;20.010;2022-12-07T10:28:02;97719.94;;;2.86;97.16
16806;BME280;8520;50.102;20.010;2022-12-07T10:30:31;97720.91;;;3.30;95.96
16806;BME280;8520;50.102;20.010;2022-12-07T10:33:00;97711.75;;;3.84;94.90
16806;BME280;8520;50.102;20.010;2022-12-07T10:35:29;97705.72;;;3.89;94.45
16806;BME280;8520;50.102;20.010;2022-12-07T10:37:59;97709.50;;;3.92;93.32
16806;BME280;8520;50.102;20.010;2022-12-07T10:40:32;97710.13;;;3.39;95.43
16806;BME280;8520;50.102;20.010;2022-12-07T10:43:03;97703.13;;;3.51;95.30
16806;BME280;8520;50.102;20.010;2022-12-07T10:45:32;97695.16;;;3.57;95.13
16806;BME280;8520;50.102;20.010;2022-12-07T10:48:27;97695.19;;;4.00;94.05
16806;BME280;8520;50.102;20.010;2022-12-07T10:51:05;97683.66;;;4.40;92.42
16806;BME280;8520;50.102;20.010;2022-12-07T10:53:51;97694.81;;;3.89;93.27
16806;BME280;8520;50.102;20.010;2022-12-07T10:59:48;97683.75;;;3.71;95.32
16806;BME280;8520;50.102;20.010;2022-12-07T11:05:24;97675.78;;;4.42;92.24
16806;BME280;8520;50.102;20.010;2022-12-07T11:08:01;97684.09;;;4.39;92.97
16806;BME280;8520;50.102;20.010;2022-12-07T11:10:41;97682.53;;;4.07;93.08
16806;BME280;8520;50.102;20.010;2022-12-07T11:13:25;97676.69;;;4.17;92.52
16806;BME280;8520;50.102;20.010;2022-12-07T11:16:12;97674.38;;;4.38;93.54
16806;BME280;8520;50.102;20.010;2022-12-07T11:18:51;97680.81;;;4.00;92.94
16806;BME280;8520;50.102;20.010;2022-12-07T11:21:27;97677.00;;;4.19;91.64
16806;BME280;8520;50.102;20.010;2022-12-07T11:24:02;97675.28;;;4.35;92.42
16806;BME280;8520;50.102;20.010;2022-12-07T11:26:41;97680.47;;;4.20;92.50
16806;BME280;8520;50.102;20.010;2022-12-07T11:29:41;97671.09;;;3.99;92.58
16806;BME280;8520;50.102;20.010;2022-12-07T11:32:19;97675.88;;;4.08;92.38
16806;BME280;8520;50.102;20.010;2022-12-07T11:34:58;97681.13;;;3.80;92.72
16806;BME280;8520;50.102;20.010;2022-12-07T11:37:32;97666.47;;;4.09;92.76
16806;BME280;8520;50.102;20.010;2022-12-07T11:40:14;97662.69;;;4.06;91.16
16806;BME280;8520;50.102;20.010;2022-12-07T11:42:48;97663.59;;;4.65;90.69
16806;BME280;8520;50.102;20.010;2022-12-07T11:45:22;97657.19;;;4.50;91.72
16806;BME280;8520;50.102;20.010;2022-12-07T11:47:54;97662.72;;;4.68;89.67
16806;BME280;8520;50.102;20.010;2022-12-07T11:50:31;97658.63;;;4.73;90.34
16806;BME280;8520;50.102;20.010;2022-12-07T11:53:03;97664.63;;;4.49;90.37
16806;BME280;8520;50.102;20.010;2022-12-07T11:55:41;97654.66;;;5.05;86.90
16806;BME280;8520;50.102;20.010;2022-12-07T11:58:21;97664.28;;;4.78;87.34
16806;BME280;8520;50.102;20.010;2022-12-07T12:00:55;97654.34;;;4.63;87.85
16806;BME280;8520;50.102;20.010;2022-12-07T12:03:34;97647.22;;;4.96;86.46
16806;BME280;8520;50.102;20.010;2022-12-07T12:06:05;97648.66;;;4.79;87.08
16806;BME280;8520;50.102;20.010;2022-12-07T12:08:38;97652.72;;;4.74;86.13
16806;BME280;8520;50.102;20.010;2022-12-07T12:11:39;97653.72;;;4.27;87.34
16806;BME280;8520;50.102;20.010;2022-12-07T12:14:26;97642.81;;;4.99;85.65
16806;BME280;8520;50.102;20.010;2022-12-07T12:17:20;97643.13;;;5.10;84.90
16806;BME280;8520;50.102;20.010;2022-12-07T12:20:03;97644.50;;;5.05;83.67
16806;BME280;8520;50.102;20.010;2022-12-07T12:22:39;97640.91;;;5.36;83.05
16806;BME280;8520;50.102;20.010;2022-12-07T12:25:21;97632.28;;;5.56;82.54
16806;BME280;8520;50.102;20.010;2022-12-07T12:27:52;97632.66;;;5.08;82.31
16806;BME280;8520;50.102;20.010;2022-12-07T12:30:30;97636.78;;;5.04;83.34
16806;BME280;8520;50.102;20.010;2022-12-07T12:33:05;97623.97;;;4.92;82.82
16806;BME280;8520;50.102;20.010;2022-12-07T12:35:36;97622.69;;;5.24;81.68
16806;BME280;8520;50.102;20.010;2022-12-07T12:38:37;97620.88;;;5.57;81.00
16806;BME280;8520;50.102;20.010;2022-12-07T12:48:02;97634.00;;;4.95;81.27
16806;BME280;8520;50.102;20.010;2022-12-07T12:50:36;97630.41;;;5.16;81.16
16806;BME280;8520;50.102;20.010;2022-12-07T12:53:21;97623.03;;;5.44;79.91
16806;BME280;8520;50.102;20.010;2022-12-07T12:56:28;97620.28;;;5.44;79.92
16806;BME280;8520;50.102;20.010;2022-12-07T12:59:23;97611.78;;;5.88;78.42
16806;BME280;8520;50.102;20.010;2022-12-07T13:01:54;97616.78;;;5.89;77.70
16806;BME280;8520;50.102;20.010;2022-12-07T13:10:49;97621.97;;;5.41;78.62
16806;BME280;8520;50.102;20.010;2022-12-07T13:13:35;97632.41;;;5.34;78.86
16806;BME280;8520;50.102;20.010;2022-12-07T13:16:39;97630.16;;;5.41;77.13
16806;BME280;8520;50.102;20.010;2022-12-07T13:22:43;97620.44;;;5.22;77.00
16806;BME280;8520;50.102;20.010;2022-12-07T13:25:17;97621.81;;;5.45;75.88
16806;BME280;8520;50.102;20.010;2022-12-07T13:27:54;97618.53;;;4.92;75.49
16806;BME280;8520;50.102;20.010;2022-12-07T13:30:25;97625.81;;;4.54;77.30
16806;BME280;8520;50.102;20.010;2022-12-07T13:32:55;97620.03;;;4.43;77.10
16806;BME280;8520;50.102;20.010;2022-12-07T13:35:34;97629.72;;;4.84;76.02
16806;BME280;8520;50.102;20.010;2022-12-07T13:38:17;97629.13;;;4.90;76.57
16806;BME280;8520;50.102;20.010;2022-12-07T13:41:00;97637.19;;;5.02;75.33
16806;BME280;8520;50.102;20.010;2022-12-07T13:43:28;97632.69;;;5.18;75.65
16806;BME280;8520;50.102;20.010;2022-12-07T13:45:57;97636.88;;;4.91;75.86
16806;BME280;8520;50.102;20.010;2022-12-07T13:48:31;97626.03;;;4.69;76.57
16806;BME280;8520;50.102;20.010;2022-12-07T13:51:03;97649.84;;;4.69;76.23
16806;BME280;8520;50.102;20.010;2022-12-07T13:53:33;97647.38;;;4.62;76.85
16806;BME280;8520;50.102;20.010;2022-12-07T13:56:01;97649.56;;;4.76;76.40
16806;BME280;8520;50.102;20.010;2022-12-07T13:58:30;97640.41;;;4.61;77.49
16806;BME280;8520;50.102;20.010;2022-12-07T14:00:59;97657.69;;;4.57;77.57
16806;BME280;8520;50.102;20.010;2022-12-07T14:03:30;97637.50;;;4.55;77.90